Time;durP1;ratioP1;P1;durP2;ratioP2;P2;SDS_P1;SDS_P2;PMS_P1;PMS_P2;Temp;Humidity;BMP_temperature;BMP_pressure;BME280_temperature;BME280_humidity;BME280_pressure;Samples;Min_cycle;Max_cycle;Signal;HPM_P1;HPM_P2
2023/01/01 00:02:13;;;;;;;20.42;6.45;;;16.90;91.60;;;;;;5090065;28;20039;-75
2023/01/01 00:04:39;;;;;;;24.05;7.72;;;16.90;91.40;;;;;;5089171;28;20346;-78
2023/01/01 00:07:05;;;;;;;23.42;8.45;;;16.90;91.40;;;;;;5090193;28;20059;-79
2023/01/01 00:12:14;;;;;;;19.00;6.63;;;16.90;91.50;;;;;;5090839;28;20032;-78
2023/01/01 00:14:43;;;;;;;20.67;6.80;;;16.90;91.50;;;;;;5091079;28;20020;-77
2023/01/01 00:17:09;;;;;;;;;;;16.90;91.20;;;;;;5094347;28;20064;-78
2023/01/01 00:19:34;;;;;;;21.42;7.10;;;16.90;91.40;;;;;;5094061;28;19908;-78
2023/01/01 00:22:00;;;;;;;18.30;5.90;;;17.00;91.40;;;;;;5094054;28;20081;-75
2023/01/01 00:24:26;;;;;;;18.20;5.70;;;17.00;91.20;;;;;;5092826;28;20051;-74
2023/01/01 00:26:51;;;;;;;25.33;10.20;;;17.00;91.10;;;;;;5093294;28;20020;-78
2023/01/01 00:29:17;;;;;;;10.23;3.90;;;17.20;91.20;;;;;;5093872;28;20035;-75
2023/01/01 00:31:44;;;;;;;14.82;4.10;;;17.00;90.90;;;;;;5092723;28;20028;-76
2023/01/01 00:34:10;;;;;;;12.00;2.70;;;17.00;91.10;;;;;;5093739;28;20032;-77
2023/01/01 00:36:36;;;;;;;10.43;3.30;;;17.10;90.90;;;;;;5093745;28;20118;-77
2023/01/01 00:39:03;;;;;;;16.23;4.38;;;17.10;90.70;;;;;;5092843;28;20182;-77
2023/01/01 00:41:29;;;;;;;15.25;4.32;;;17.10;90.90;;;;;;5093916;28;20024;-76
2023/01/01 00:43:55;;;;;;;12.43;3.13;;;17.10;90.70;;;;;;5092318;28;20020;-76
2023/01/01 00:46:21;;;;;;;10.55;2.90;;;17.20;90.70;;;;;;5093900;28;20032;-76
2023/01/01 00:48:46;;;;;;;16.45;2.83;;;17.20;90.60;;;;;;5093534;28;20035;-76
2023/01/01 00:51:12;;;;;;;15.20;3.17;;;17.20;90.80;;;;;;5092245;28;20059;-77
2023/01/01 00:53:38;;;;;;;9.05;2.80;;;17.10;90.80;;;;;;5093966;28;20353;-77
2023/01/01 00:56:05;;;;;;;14.68;3.78;;;17.10;90.70;;;;;;5093599;28;20035;-77
2023/01/01 00:58:31;;;;;;;14.60;3.58;;;17.20;90.80;;;;;;5082835;28;20097;-78
2023/01/01 01:00:57;;;;;;;11.95;2.97;;;17.20;90.60;;;;;;5092108;28;20036;-78
2023/01/01 01:03:29;;;;;;;8.55;2.67;;;17.20;90.80;;;;;;5093241;28;20047;-78
2023/01/01 01:06:02;;;;;;;14.68;3.28;;;17.20;90.70;;;;;;5092614;28;20099;-76
2023/01/01 01:08:29;;;;;;;13.25;3.05;;;17.20;90.60;;;;;;5093627;28;20032;-78
2023/01/01 01:11:04;;;;;;;18.73;7.10;;;17.20;90.60;;;;;;5092534;28;20024;-77
2023/01/01 01:13:30;;;;;;;16.38;8.40;;;17.20;90.70;;;;;;5092070;28;20024;-77
2023/01/01 01:15:55;;;;;;;11.57;2.83;;;17.20;90.80;;;;;;5092670;28;20102;-75
2023/01/01 01:18:21;;;;;;;6.45;2.95;;;17.20;90.80;;;;;;5092808;28;20024;-77
2023/01/01 01:20:51;;;;;;;9.55;2.67;;;17.20;90.70;;;;;;5093122;28;20111;-76
2023/01/01 01:23:17;;;;;;;10.48;2.63;;;17.10;90.80;;;;;;5091593;28;20094;-77
2023/01/01 01:25:43;;;;;;;17.10;3.70;;;17.30;90.60;;;;;;5093002;28;20411;-77
2023/01/01 01:28:09;;;;;;;12.95;3.13;;;17.30;90.60;;;;;;5092203;28;20530;-77
2023/01/01 01:30:37;;;;;;;18.30;3.72;;;17.30;90.60;;;;;;5092648;28;20454;-78
2023/01/01 01:33:03;;;;;;;9.60;2.65;;;17.30;90.50;;;;;;5093205;28;20035;-78
2023/01/01 01:35:29;;;;;;;13.57;3.90;;;17.30;90.70;;;;;;5091446;28;20028;-75
2023/01/01 01:37:55;;;;;;;18.27;4.70;;;17.30;90.60;;;;;;5092499;28;20084;-77
2023/01/01 01:40:20;;;;;;;17.55;3.45;;;17.30;90.60;;;;;;5091339;28;20501;-77
2023/01/01 01:42:47;;;;;;;12.73;2.92;;;17.30;90.60;;;;;;5091341;28;20134;-79
2023/01/01 01:45:13;;;;;;;12.65;3.50;;;17.20;90.50;;;;;;5092700;28;20042;-77
2023/01/01 01:47:49;;;;;;;14.82;3.47;;;17.20;90.60;;;;;;5093351;28;20150;-79
2023/01/01 01:50:24;;;;;;;12.05;3.17;;;17.30;90.80;;;;;;5092779;28;20521;-76
2023/01/01 01:52:57;;;;;;;14.77;3.75;;;17.30;90.50;;;;;;5093099;28;20176;-78
2023/01/01 01:55:27;;;;;;;16.73;3.10;;;17.30;91.10;;;;;;5092621;28;20032;-78
2023/01/01 01:57:53;;;;;;;23.92;9.50;;;17.20;90.70;;;;;;5091526;28;20029;-77
2023/01/01 02:00:19;;;;;;;18.02;3.85;;;17.20;90.80;;;;;;5091626;28;20093;-76
2023/01/01 02:03:08;;;;;;;10.35;4.03;;;17.20;90.90;;;;;;5093185;28;20088;-78
2023/01/01 02:05:34;;;;;;;10.98;3.83;;;17.20;91.00;;;;;;5093121;28;20039;-77
2023/01/01 02:08:03;;;;;;;14.45;4.05;;;17.20;91.00;;;;;;5091777;28;20039;-75
2023/01/01 02:10:29;;;;;;;8.20;2.97;;;17.20;90.80;;;;;;5093757;28;20046;-77
2023/01/01 02:12:55;;;;;;;8.48;3.60;;;17.20;90.90;;;;;;5093082;28;20024;-77
2023/01/01 02:15:27;;;;;;;15.00;3.35;;;17.10;91.00;;;;;;5093942;28;20357;-77
2023/01/01 02:18:12;;;;;;;13.98;3.67;;;17.10;90.90;;;;;;5092659;28;20047;-76
2023/01/01 02:21:11;;;;;;;17.95;3.67;;;17.10;90.90;;;;;;5093406;28;20504;-77
2023/01/01 02:23:40;;;;;;;10.20;3.70;;;17.00;90.70;;;;;;5091077;28;20066;-76
2023/01/01 02:26:37;;;;;;;9.88;3.67;;;17.10;90.80;;;;;;5091831;28;20036;-76
2023/01/01 02:29:27;;;;;;;14.10;5.28;;;17.00;90.80;;;;;;5091664;28;20135;-77
2023/01/01 02:32:04;;;;;;;16.13;6.18;;;17.00;90.70;;;;;;5091528;28;20016;-76
2023/01/01 02:34:43;;;;;;;14.88;4.53;;;17.10;90.60;;;;;;5091628;28;20127;-76
2023/01/01 02:37:12;;;;;;;15.32;3.95;;;17.00;90.70;;;;;;5110843;28;20112;-77
2023/01/01 02:39:44;;;;;;;14.18;5.25;;;17.10;90.40;;;;;;5111965;28;20453;-76
2023/01/01 02:42:11;;;;;;;14.75;3.90;;;17.10;90.30;;;;;;5110785;28;20139;-78
2023/01/01 02:44:41;;;;;;;15.18;3.90;;;17.10;90.20;;;;;;5112091;28;20165;-76
2023/01/01 02:47:14;;;;;;;12.85;4.10;;;17.00;90.30;;;;;;5110712;28;20051;-77
2023/01/01 02:50:09;;;;;;;11.48;3.42;;;17.00;90.00;;;;;;5110802;28;20450;-77
2023/01/01 02:53:06;;;;;;;10.80;3.80;;;17.00;90.10;;;;;;5108636;28;20038;-78
2023/01/01 02:55:55;;;;;;;7.85;3.30;;;17.10;89.90;;;;;;5110391;28;20200;-78
2023/01/01 03:01:34;;;;;;;9.65;3.80;;;17.00;89.40;;;;;;5114369;28;20139;-79
2023/01/01 03:04:12;;;;;;;19.85;3.70;;;17.00;89.30;;;;;;5110875;28;20035;-77
2023/01/01 03:07:05;;;;;;;12.95;3.83;;;17.00;89.30;;;;;;5112636;28;20441;-78
2023/01/01 03:09:52;;;;;;;12.48;3.88;;;17.00;89.30;;;;;;5112910;28;20032;-79
2023/01/01 03:12:38;;;;;;;13.32;3.70;;;17.00;88.90;;;;;;5110403;28;20112;-77
2023/01/01 03:15:13;;;;;;;16.85;3.85;;;16.90;89.00;;;;;;5111328;28;20055;-76
2023/01/01 03:17:51;;;;;;;19.48;5.45;;;17.00;88.70;;;;;;5111629;28;20035;-76
2023/01/01 03:20:23;;;;;;;11.45;5.47;;;17.00;89.00;;;;;;5111602;28;20257;-76
2023/01/01 03:22:52;;;;;;;14.43;4.53;;;17.00;88.50;;;;;;5111826;28;20097;-75
2023/01/01 03:25:30;;;;;;;11.27;3.78;;;17.00;88.10;;;;;;5110725;28;20116;-76
2023/01/01 03:28:01;;;;;;;12.02;3.70;;;17.00;88.40;;;;;;5111801;28;20027;-78
2023/01/01 03:30:29;;;;;;;12.80;3.70;;;16.90;87.70;;;;;;5110872;28;20464;-77
2023/01/01 03:33:00;;;;;;;15.55;3.97;;;17.00;88.00;;;;;;5111943;28;20353;-76
2023/01/01 03:35:47;;;;;;;13.25;5.13;;;17.00;88.00;;;;;;5111032;28;20038;-77
2023/01/01 03:38:23;;;;;;;14.07;3.35;;;16.90;88.10;;;;;;5110352;28;20024;-77
2023/01/01 03:40:52;;;;;;;15.10;3.80;;;16.90;87.70;;;;;;5111110;28;20521;-76
2023/01/01 03:43:44;;;;;;;12.05;3.53;;;16.90;87.80;;;;;;5110833;28;20047;-78
2023/01/01 03:46:12;;;;;;;14.68;3.67;;;16.90;87.30;;;;;;5109694;28;20519;-77
2023/01/01 03:48:59;;;;;;;8.65;3.17;;;16.80;87.20;;;;;;5111051;28;20036;-78
2023/01/01 03:52:02;;;;;;;6.00;2.80;;;16.80;86.90;;;;;;5114672;28;20031;-77
2023/01/01 03:54:30;;;;;;;14.20;3.17;;;16.80;86.70;;;;;;5115109;28;20475;-77
2023/01/01 03:57:24;;;;;;;9.35;3.13;;;16.80;86.70;;;;;;5114728;28;20031;-78
2023/01/01 04:00:07;;;;;;;14.00;2.65;;;16.80;86.40;;;;;;5115127;28;20032;-75
2023/01/01 04:02:43;;;;;;;9.10;2.75;;;16.80;86.30;;;;;;5114972;28;20114;-76
2023/01/01 04:05:10;;;;;;;11.07;2.50;;;16.80;86.60;;;;;;5114957;28;20157;-75
2023/01/01 04:07:36;;;;;;;12.55;3.30;;;16.80;85.70;;;;;;5114684;28;20020;-75
2023/01/01 04:10:15;;;;;;;18.08;4.22;;;16.80;86.00;;;;;;5113644;28;20042;-77
2023/01/01 04:12:49;;;;;;;9.68;2.40;;;16.80;85.60;;;;;;5114781;28;20036;-76
2023/01/01 04:15:17;;;;;;;11.45;2.70;;;16.80;85.70;;;;;;5114365;28;20188;-76
2023/01/01 04:17:43;;;;;;;15.20;2.70;;;16.80;85.80;;;;;;5114141;28;20070;-76
2023/01/01 04:20:09;;;;;;;9.68;2.92;;;16.80;85.90;;;;;;5113234;28;20078;-77
2023/01/01 04:22:35;;;;;;;8.13;2.53;;;16.80;86.00;;;;;;5113319;28;20023;-78
2023/01/01 04:25:01;;;;;;;7.03;2.60;;;16.70;86.40;;;;;;5113612;28;20458;-76
2023/01/01 04:27:27;;;;;;;6.30;2.60;;;16.70;86.10;;;;;;5112935;28;20034;-77
2023/01/01 04:29:52;;;;;;;9.57;2.78;;;16.70;86.70;;;;;;5114911;28;20027;-77
2023/01/01 04:32:18;;;;;;;9.50;2.92;;;16.70;86.10;;;;;;5114774;27;20039;-77
2023/01/01 04:34:44;;;;;;;8.10;2.88;;;16.70;86.10;;;;;;5113106;28;20126;-78
2023/01/01 04:37:09;;;;;;;9.38;2.50;;;16.70;86.70;;;;;;5113383;28;20373;-75
2023/01/01 04:39:35;;;;;;;11.77;2.58;;;16.70;86.50;;;;;;5114392;27;20361;-77
2023/01/01 04:42:01;;;;;;;6.72;2.28;;;16.60;86.60;;;;;;5113594;28;20016;-76
2023/01/01 04:44:26;;;;;;;5.57;1.83;;;16.60;86.80;;;;;;5114251;28;20024;-76
2023/01/01 04:46:52;;;;;;;5.43;2.08;;;16.60;86.60;;;;;;5114396;27;20036;-76
2023/01/01 04:49:18;;;;;;;8.60;2.40;;;16.60;86.80;;;;;;5113022;28;20034;-78
2023/01/01 04:51:43;;;;;;;6.75;1.73;;;16.60;86.50;;;;;;5114249;28;20032;-79
2023/01/01 04:54:09;;;;;;;6.07;1.83;;;16.60;86.70;;;;;;5112716;28;20411;-78
2023/01/01 04:56:35;;;;;;;8.43;2.38;;;16.60;87.10;;;;;;5114904;28;20434;-76
2023/01/01 04:59:00;;;;;;;3.67;1.85;;;16.50;86.70;;;;;;5112945;28;20536;-76
2023/01/01 05:01:27;;;;;;;12.75;2.13;;;16.60;86.80;;;;;;5112341;27;20331;-76
2023/01/01 05:03:54;;;;;;;9.00;1.85;;;16.50;86.90;;;;;;5114038;28;20328;-77
2023/01/01 05:06:20;;;;;;;7.30;2.13;;;16.50;86.80;;;;;;5112822;28;20027;-77
2023/01/01 05:08:48;;;;;;;6.00;2.17;;;16.50;86.90;;;;;;5113525;28;20030;-78
2023/01/01 05:11:19;;;;;;;13.88;1.88;;;16.50;87.00;;;;;;5114051;28;20062;-75
2023/01/01 05:13:48;;;;;;;3.17;1.50;;;16.50;87.00;;;;;;5113943;28;20070;-76
2023/01/01 05:16:16;;;;;;;6.80;1.63;;;16.50;87.00;;;;;;5113420;28;20556;-77
2023/01/01 05:18:42;;;;;;;6.63;2.05;;;16.50;86.90;;;;;;5113698;28;20473;-78
2023/01/01 05:21:11;;;;;;;8.43;2.13;;;16.50;87.20;;;;;;5113634;27;20104;-77
2023/01/01 05:23:37;;;;;;;5.00;2.00;;;16.40;87.00;;;;;;5114155;28;20457;-78
2023/01/01 05:26:22;;;;;;;14.25;2.25;;;16.50;87.10;;;;;;5113862;28;20089;-77
2023/01/01 05:28:48;;;;;;;4.32;1.92;;;16.40;87.30;;;;;;5113454;28;20024;-77
2023/01/01 05:31:19;;;;;;;7.60;1.85;;;16.40;87.10;;;;;;5113342;27;20057;-77
2023/01/01 05:33:45;;;;;;;3.60;1.67;;;16.40;87.30;;;;;;5113386;28;20092;-77
2023/01/01 05:36:16;;;;;;;6.38;1.80;;;16.40;87.40;;;;;;5112351;28;20377;-76
2023/01/01 05:38:42;;;;;;;4.88;1.30;;;16.40;88.10;;;;;;5113803;28;20020;-77
2023/01/01 05:41:11;;;;;;;14.63;2.00;;;16.50;87.60;;;;;;5112136;28;20390;-76
2023/01/01 05:43:37;;;;;;;9.48;2.05;;;16.40;87.40;;;;;;5112973;28;20091;-76
2023/01/01 05:46:05;;;;;;;9.63;2.20;;;16.40;87.60;;;;;;5113242;27;20027;-77
2023/01/01 05:48:31;;;;;;;5.60;1.80;;;16.40;87.40;;;;;;5113212;28;20453;-77
2023/01/01 05:51:21;;;;;;;4.40;1.60;;;16.40;87.50;;;;;;5113660;28;20468;-77
2023/01/01 05:53:47;;;;;;;5.07;2.00;;;16.40;87.50;;;;;;5112573;28;20050;-77
2023/01/01 05:56:14;;;;;;;4.85;1.48;;;16.40;87.70;;;;;;5111764;28;20115;-76
2023/01/01 05:58:41;;;;;;;10.23;2.13;;;16.40;87.60;;;;;;5112935;28;20276;-78
2023/01/01 06:01:16;;;;;;;7.53;1.50;;;16.40;87.70;;;;;;5112739;28;20031;-78
2023/01/01 06:03:43;;;;;;;4.93;1.33;;;16.40;87.50;;;;;;5112831;28;20032;-77
2023/01/01 06:06:12;;;;;;;4.20;1.33;;;16.40;87.60;;;;;;5112600;28;20028;-76
2023/01/01 06:08:37;;;;;;;3.33;1.05;;;16.40;87.50;;;;;;5112428;28;20397;-78
2023/01/01 06:11:06;;;;;;;2.92;1.02;;;16.40;87.70;;;;;;5112782;28;20034;-77
2023/01/01 06:13:33;;;;;;;5.47;1.17;;;16.40;87.80;;;;;;5110773;28;20487;-75
2023/01/01 06:16:00;;;;;;;5.45;1.42;;;16.40;87.80;;;;;;5112357;28;20040;-77
2023/01/01 06:18:30;;;;;;;3.50;1.33;;;16.40;87.70;;;;;;5111784;28;20031;-77
2023/01/01 06:21:09;;;;;;;2.10;1.00;;;16.40;87.70;;;;;;5111789;28;20454;-77
2023/01/01 06:23:35;;;;;;;5.07;1.45;;;16.40;87.80;;;;;;5112589;28;20059;-76
2023/01/01 06:26:12;;;;;;;3.35;1.40;;;16.40;88.00;;;;;;5112804;28;20032;-76
2023/01/01 06:28:38;;;;;;;2.05;0.90;;;16.40;88.30;;;;;;5112381;28;20291;-76
2023/01/01 06:31:06;;;;;;;2.85;0.93;;;16.30;88.10;;;;;;5112614;28;20059;-77
2023/01/01 06:33:31;;;;;;;2.58;0.88;;;16.30;88.20;;;;;;5111198;28;20030;-76
2023/01/01 06:35:58;;;;;;;4.90;1.10;;;16.30;88.60;;;;;;5113027;28;20016;-77
2023/01/01 06:38:26;;;;;;;5.03;1.00;;;16.30;88.30;;;;;;5111935;28;20028;-77
2023/01/01 06:41:01;;;;;;;6.20;1.45;;;16.20;88.30;;;;;;5112182;28;20028;-78
2023/01/01 06:43:28;;;;;;;4.45;1.30;;;16.20;88.40;;;;;;5112103;28;20023;-77
2023/01/01 06:46:06;;;;;;;5.80;1.13;;;16.20;88.50;;;;;;5111143;28;20096;-77
2023/01/01 06:48:34;;;;;;;5.15;1.27;;;16.20;88.50;;;;;;5112018;28;20085;-77
2023/01/01 06:51:06;;;;;;;6.65;1.00;;;16.20;88.20;;;;;;5112964;28;20094;-77
2023/01/01 06:53:32;;;;;;;6.53;1.33;;;16.20;88.40;;;;;;5112249;28;20036;-78
2023/01/01 06:55:58;;;;;;;6.35;1.50;;;16.20;88.80;;;;;;5110732;28;20058;-76
2023/01/01 06:58:23;;;;;;;6.65;1.52;;;16.20;88.70;;;;;;5111826;27;20036;-77
2023/01/01 07:00:49;;;;;;;3.28;1.10;;;16.10;88.60;;;;;;5112030;28;20044;-77
2023/01/01 07:03:14;;;;;;;3.15;1.10;;;16.10;88.80;;;;;;5111986;28;20055;-77
2023/01/01 07:05:40;;;;;;;3.88;1.13;;;16.10;88.90;;;;;;5112142;28;20031;-77
2023/01/01 07:08:06;;;;;;;2.67;1.40;;;16.10;88.80;;;;;;5111680;28;20031;-77
2023/01/01 07:10:32;;;;;;;9.40;1.25;;;16.10;89.00;;;;;;5111431;28;20040;-78
2023/01/01 07:12:57;;;;;;;3.50;1.42;;;16.10;89.30;;;;;;5111535;28;20081;-75
2023/01/01 07:15:23;;;;;;;7.90;1.38;;;16.10;89.20;;;;;;5111511;28;20051;-77
2023/01/01 07:17:48;;;;;;;2.92;1.10;;;16.10;89.90;;;;;;5110766;28;20055;-76
2023/01/01 07:20:14;;;;;;;4.03;1.20;;;16.10;89.50;;;;;;5110350;28;20036;-78
2023/01/01 07:22:40;;;;;;;2.78;1.08;;;16.00;89.50;;;;;;5111544;27;20065;-76
2023/01/01 07:25:06;;;;;;;3.30;1.00;;;16.00;89.30;;;;;;5110737;28;20042;-76
2023/01/01 07:27:32;;;;;;;4.72;1.00;;;16.00;89.40;;;;;;5111092;28;20318;-78
2023/01/01 07:29:58;;;;;;;2.83;1.20;;;16.00;89.50;;;;;;5111616;28;20179;-75
2023/01/01 07:32:24;;;;;;;7.05;1.40;;;15.90;89.50;;;;;;5111049;28;20043;-75
2023/01/01 07:34:49;;;;;;;3.75;1.27;;;15.90;89.20;;;;;;5111438;28;20457;-78
2023/01/01 07:37:15;;;;;;;4.05;1.10;;;15.90;89.40;;;;;;5111130;28;20512;-76
2023/01/01 07:39:41;;;;;;;2.63;1.00;;;15.90;89.60;;;;;;5109838;28;20046;-77
2023/01/01 07:42:06;;;;;;;2.20;1.05;;;16.00;89.70;;;;;;5111259;28;20019;-77
2023/01/01 07:44:32;;;;;;;6.47;1.00;;;16.00;89.60;;;;;;5111574;28;20103;-77
2023/01/01 07:47:03;;;;;;;4.47;1.30;;;16.00;89.80;;;;;;5111486;28;20020;-76
2023/01/01 07:49:29;;;;;;;3.08;1.10;;;15.90;89.70;;;;;;5109999;28;20034;-76
2023/01/01 07:51:54;;;;;;;2.00;0.90;;;15.90;89.80;;;;;;5111074;28;20031;-76
2023/01/01 07:54:20;;;;;;;3.95;1.08;;;15.90;90.00;;;;;;5110084;28;20042;-76
2023/01/01 07:56:45;;;;;;;5.70;0.82;;;15.90;90.10;;;;;;5111897;28;20019;-77
2023/01/01 07:59:11;;;;;;;4.78;0.90;;;15.90;90.10;;;;;;5109785;28;20046;-76
2023/01/01 08:01:37;;;;;;;4.95;1.42;;;15.90;90.10;;;;;;5110910;28;20036;-76
2023/01/01 08:04:03;;;;;;;4.63;1.17;;;15.90;90.10;;;;;;5109765;28;20040;-76
2023/01/01 08:06:29;;;;;;;10.02;1.25;;;15.90;90.10;;;;;;5109664;28;20398;-77
2023/01/01 08:08:54;;;;;;;3.08;0.90;;;16.00;90.10;;;;;;5111404;28;20034;-76
2023/01/01 08:11:20;;;;;;;5.13;1.80;;;16.00;90.20;;;;;;5111094;28;20051;-76
2023/01/01 08:13:46;;;;;;;9.30;1.45;;;16.00;90.20;;;;;;5111024;28;20040;-76
2023/01/01 08:16:11;;;;;;;3.72;1.10;;;16.00;90.20;;;;;;5109836;28;20047;-77
2023/01/01 08:18:37;;;;;;;6.03;1.10;;;16.00;90.30;;;;;;5109891;28;20039;-76
2023/01/01 08:21:04;;;;;;;3.55;1.20;;;16.00;90.30;;;;;;5111004;28;20102;-77
2023/01/01 08:23:29;;;;;;;6.07;1.65;;;16.00;90.30;;;;;;5110088;28;20470;-76
2023/01/01 08:26:00;;;;;;;4.20;1.45;;;16.00;90.30;;;;;;5110860;28;20024;-76
2023/01/01 08:28:26;;;;;;;4.18;1.38;;;15.90;90.30;;;;;;5111163;28;20482;-77
2023/01/01 08:30:52;;;;;;;3.22;0.95;;;16.00;90.40;;;;;;5109816;28;20123;-78
2023/01/01 08:33:17;;;;;;;1.73;0.80;;;16.00;90.30;;;;;;5110918;28;20028;-78
2023/01/01 08:35:43;;;;;;;4.05;0.80;;;16.00;90.60;;;;;;5112304;28;20484;-76
2023/01/01 08:38:12;;;;;;;3.35;0.80;;;16.00;90.40;;;;;;5113588;28;20036;-77
2023/01/01 08:40:38;;;;;;;7.05;0.90;;;16.00;90.40;;;;;;5114476;28;20031;-78
2023/01/01 08:43:04;;;;;;;2.78;1.10;;;15.90;90.40;;;;;;5113397;28;20111;-78
2023/01/01 08:45:29;;;;;;;6.18;1.27;;;15.90;90.50;;;;;;5113429;28;20044;-77
2023/01/01 08:47:56;;;;;;;5.35;1.70;;;15.90;90.50;;;;;;5113715;28;20020;-76
2023/01/01 08:50:21;;;;;;;3.58;1.15;;;15.90;90.60;;;;;;5113412;28;20024;-77
2023/01/01 08:52:47;;;;;;;5.35;1.13;;;15.90;90.70;;;;;;5114442;28;20051;-76
2023/01/01 08:55:13;;;;;;;4.97;1.02;;;15.90;90.80;;;;;;5113055;28;20372;-76
2023/01/01 08:57:39;;;;;;;5.97;1.50;;;15.90;90.80;;;;;;5113986;28;20044;-77
2023/01/01 09:00:08;;;;;;;4.35;1.05;;;16.00;90.90;;;;;;5113584;28;20034;-79
2023/01/01 09:02:34;;;;;;;3.55;1.13;;;15.80;90.90;;;;;;5113439;28;20091;-77
2023/01/01 09:04:59;;;;;;;5.63;1.23;;;15.80;91.00;;;;;;5113768;28;20413;-78
2023/01/01 09:07:25;;;;;;;3.33;1.10;;;15.90;91.10;;;;;;5113952;28;20032;-77
2023/01/01 09:09:51;;;;;;;4.15;1.50;;;15.80;91.50;;;;;;5113957;28;20055;-77
2023/01/01 09:12:16;;;;;;;8.73;2.15;;;15.80;91.30;;;;;;5114168;28;20027;-75
2023/01/01 09:14:42;;;;;;;6.03;1.40;;;15.80;91.40;;;;;;5113879;28;20070;-76
2023/01/01 09:17:08;;;;;;;2.40;1.20;;;15.80;91.50;;;;;;5113711;28;20042;-76
2023/01/01 09:19:33;;;;;;;5.25;1.27;;;15.80;91.50;;;;;;5113721;28;20032;-77
2023/01/01 09:21:59;;;;;;;6.95;1.30;;;15.80;91.70;;;;;;5112384;28;20035;-77
2023/01/01 09:24:25;;;;;;;9.63;1.42;;;15.80;92.00;;;;;;5113687;27;20119;-77
2023/01/01 09:26:50;;;;;;;2.92;1.05;;;15.70;92.30;;;;;;5112685;28;20024;-74
2023/01/01 09:29:17;;;;;;;5.10;1.10;;;15.70;92.50;;;;;;5112362;28;20051;-75
2023/01/01 09:31:44;;;;;;;4.80;1.27;;;15.70;92.60;;;;;;5113394;28;20036;-75
2023/01/01 09:34:09;;;;;;;4.68;1.40;;;15.60;92.70;;;;;;5113300;28;20115;-76
2023/01/01 09:36:35;;;;;;;3.08;1.30;;;15.60;92.80;;;;;;5112376;28;20115;-77
2023/01/01 09:39:01;;;;;;;6.53;1.30;;;15.60;93.40;;;;;;5112323;28;20114;-75
2023/01/01 09:41:27;;;;;;;4.78;1.50;;;15.50;94.40;;;;;;5112949;28;20486;-77
2023/01/01 09:44:04;;;;;;;4.20;1.13;;;15.40;95.40;;;;;;5113013;28;20119;-76
2023/01/01 09:46:31;;;;;;;5.55;1.05;;;15.30;96.10;;;;;;5112967;27;20131;-77
2023/01/01 09:49:01;;;;;;;2.42;1.02;;;15.00;96.10;;;;;;5111089;28;20038;-76
2023/01/01 09:51:32;;;;;;;3.50;1.05;;;15.00;95.20;;;;;;5113079;28;20039;-77
2023/01/01 09:54:05;;;;;;;6.45;1.00;;;15.00;94.20;;;;;;5113249;28;20026;-77
2023/01/01 09:56:33;;;;;;;3.15;0.90;;;14.90;94.20;;;;;;5112976;28;20374;-78
2023/01/01 09:58:59;;;;;;;3.47;1.10;;;14.80;94.70;;;;;;5111713;28;20028;-78
2023/01/01 10:01:44;;;;;;;4.38;0.90;;;14.80;95.10;;;;;;5112769;28;20050;-77
2023/01/01 10:04:48;;;;;;;7.40;1.08;;;14.80;95.60;;;;;;5112581;28;20040;-76
2023/01/01 10:07:22;;;;;;;3.92;1.25;;;14.80;96.10;;;;;;5111386;28;20541;-76
2023/01/01 10:10:13;;;;;;;5.28;1.25;;;14.60;97.20;;;;;;5112581;28;20046;-76
2023/01/01 10:12:44;;;;;;;6.90;1.45;;;14.60;97.70;;;;;;5112488;28;20069;-76
2023/01/01 10:15:24;;;;;;;3.20;1.50;;;14.60;98.00;;;;;;5111168;28;20043;-77
2023/01/01 10:17:58;;;;;;;6.15;1.45;;;14.60;98.50;;;;;;5112916;28;20488;-77
2023/01/01 10:20:41;;;;;;;7.10;1.48;;;14.70;98.90;;;;;;5112192;28;20126;-78
2023/01/01 10:23:19;;;;;;;6.53;1.48;;;14.60;99.50;;;;;;5112447;28;20038;-77
2023/01/01 10:25:46;;;;;;;3.80;1.10;;;14.50;99.90;;;;;;5111943;28;20024;-77
2023/01/01 10:28:33;;;;;;;4.40;1.38;;;14.50;99.90;;;;;;5112156;28;20095;-76
2023/01/01 10:31:23;;;;;;;6.85;1.55;;;14.50;99.90;;;;;;5112135;28;20042;-75
2023/01/01 10:33:49;;;;;;;3.10;1.25;;;14.30;99.90;;;;;;5111056;28;20416;-76
2023/01/01 10:36:18;;;;;;;7.00;2.28;;;14.20;99.90;;;;;;5111985;28;20099;-78
2023/01/01 10:38:44;;;;;;;5.05;1.58;;;14.20;99.90;;;;;;5112688;28;20031;-76
2023/01/01 10:41:11;;;;;;;7.57;1.70;;;14.00;99.90;;;;;;5111837;28;20460;-79
2023/01/01 10:43:37;;;;;;;6.32;1.75;;;13.90;99.90;;;;;;5110672;28;20036;-78
2023/01/01 10:46:03;;;;;;;7.07;1.90;;;13.80;99.90;;;;;;5111744;28;20034;-77
2023/01/01 10:48:31;;;;;;;6.18;1.88;;;13.80;99.90;;;;;;5111988;28;20118;-77
2023/01/01 10:51:04;;;;;;;4.25;1.38;;;13.80;99.90;;;;;;5112486;28;20020;-77
2023/01/01 10:53:58;;;;;;;4.75;1.35;;;13.70;99.90;;;;;;5111946;28;20036;-77
2023/01/01 10:56:24;;;;;;;6.53;1.83;;;13.70;99.90;;;;;;5110910;28;20054;-77
2023/01/01 10:58:53;;;;;;;6.45;1.65;;;13.70;99.90;;;;;;5110594;28;20052;-77
2023/01/01 11:01:26;;;;;;;3.40;1.15;;;13.90;99.90;;;;;;5110453;28;20088;-75
2023/01/01 11:03:58;;;;;;;3.58;1.20;;;13.80;99.90;;;;;;5111360;28;20050;-78
2023/01/01 11:06:29;;;;;;;3.85;1.27;;;13.80;99.90;;;;;;5111401;28;20051;-78
2023/01/01 11:08:58;;;;;;;7.45;1.88;;;13.80;99.90;;;;;;5110523;28;20016;-78
2023/01/01 11:11:31;;;;;;;;;;;13.90;99.90;;;;;;5111783;28;20469;-77
2023/01/01 11:14:02;;;;;;;12.73;1.48;;;13.90;99.90;;;;;;5110193;28;19934;-75
2023/01/01 11:16:28;;;;;;;9.15;3.67;;;13.80;99.90;;;;;;5110094;28;20123;-77
2023/01/01 11:19:02;;;;;;;9.25;2.65;;;13.90;99.90;;;;;;5111254;28;20106;-76
2023/01/01 11:21:28;;;;;;;6.50;1.52;;;13.90;99.90;;;;;;5110019;28;20468;-76
2023/01/01 11:24:14;;;;;;;6.07;2.40;;;13.90;99.90;;;;;;5111491;28;20111;-77
2023/01/01 11:26:40;;;;;;;6.15;1.70;;;14.00;99.90;;;;;;5099499;28;20035;-76
2023/01/01 11:29:27;;;;;;;3.15;1.25;;;13.90;99.90;;;;;;5111215;28;20092;-75
2023/01/01 11:31:54;;;;;;;;;;;13.80;99.90;;;;;;5111559;28;20031;-78
2023/01/01 11:34:28;;;;;;;5.00;1.00;;;13.70;99.90;;;;;;5110706;28;19943;-78
2023/01/01 11:37:15;;;;;;;2.85;1.00;;;13.70;99.90;;;;;;5109953;28;20477;-78
2023/01/01 11:39:43;;;;;;;3.88;1.23;;;13.60;99.90;;;;;;5110732;28;20031;-78
2023/01/01 11:42:24;;;;;;;5.68;1.30;;;13.60;99.90;;;;;;5110879;28;20457;-75
2023/01/01 11:45:12;;;;;;;4.38;1.23;;;13.60;99.90;;;;;;5111575;28;20135;-77
2023/01/01 11:47:40;;;;;;;3.55;0.93;;;13.60;99.90;;;;;;5103027;28;20023;-77
2023/01/01 11:50:27;;;;;;;2.70;1.30;;;13.60;99.90;;;;;;5110875;28;20032;-77
2023/01/01 11:52:54;;;;;;;3.95;1.20;;;13.60;99.90;;;;;;5110617;28;20031;-78
2023/01/01 11:55:31;;;;;;;2.63;0.95;;;13.60;99.90;;;;;;5110746;28;20031;-78
2023/01/01 11:58:23;;;;;;;2.92;1.02;;;13.60;99.90;;;;;;5110884;28;20484;-78
2023/01/01 12:00:54;;;;;;;2.45;1.30;;;13.60;99.90;;;;;;5108395;28;20096;-77
2023/01/01 12:03:25;;;;;;;4.05;1.08;;;13.60;99.90;;;;;;5110660;28;20031;-76
2023/01/01 12:05:59;;;;;;;2.72;1.02;;;13.70;99.90;;;;;;5111038;28;20023;-78
2023/01/01 12:08:37;;;;;;;7.65;1.38;;;13.70;99.90;;;;;;5109485;28;20159;-77
2023/01/01 12:11:30;;;;;;;2.97;0.80;;;13.70;99.90;;;;;;5112217;28;20165;-78
2023/01/01 12:14:05;;;;;;;8.57;3.65;;;13.60;99.90;;;;;;5114600;28;20461;-78
2023/01/01 12:16:47;;;;;;;4.18;0.90;;;13.60;99.90;;;;;;5113537;28;20039;-75
2023/01/01 12:19:29;;;;;;;3.33;0.95;;;13.50;99.90;;;;;;5114564;27;20032;-77
2023/01/01 12:21:59;;;;;;;2.00;1.00;;;13.40;99.90;;;;;;5114568;28;20497;-77
2023/01/01 12:24:33;;;;;;;2.13;0.82;;;13.40;99.90;;;;;;5114429;28;20043;-78
2023/01/01 12:27:25;;;;;;;2.60;0.95;;;13.40;99.90;;;;;;5114772;28;20024;-79
2023/01/01 12:30:03;;;;;;;3.35;0.85;;;13.40;99.90;;;;;;5082341;28;20096;-78
2023/01/01 12:32:38;;;;;;;;;;;13.30;99.90;;;;;;5114579;28;20101;-79
2023/01/01 12:35:13;;;;;;;2.50;0.73;;;13.40;99.90;;;;;;5114417;28;19908;-78
2023/01/01 12:38:06;;;;;;;3.53;0.95;;;13.30;99.90;;;;;;5114123;28;20050;-77
2023/01/01 12:40:40;;;;;;;1.83;0.80;;;13.30;99.90;;;;;;5112844;28;20031;-76
2023/01/01 12:43:24;;;;;;;5.95;1.35;;;13.30;99.90;;;;;;5114126;27;20032;-78
2023/01/01 12:46:10;;;;;;;3.75;1.10;;;13.30;99.90;;;;;;5114443;28;20111;-78
2023/01/01 12:48:48;;;;;;;3.58;1.15;;;13.40;99.90;;;;;;5112870;28;20032;-78
2023/01/01 12:51:26;;;;;;;;;;;13.30;99.90;;;;;;5114616;28;20023;-77
2023/01/01 12:54:22;;;;;;;2.70;1.02;;;13.40;99.90;;;;;;5113357;28;20352;-78
2023/01/01 12:57:02;;;;;;;2.00;1.23;;;13.20;99.90;;;;;;5113902;27;20460;-78
2023/01/01 12:59:33;;;;;;;2.17;0.98;;;13.30;99.90;;;;;;5113855;28;20032;-78
2023/01/01 13:02:02;;;;;;;4.07;1.00;;;13.30;99.90;;;;;;5113678;28;20036;-77
2023/01/01 13:04:29;;;;;;;2.15;1.08;;;13.30;99.90;;;;;;5113715;28;20038;-77
2023/01/01 13:07:03;;;;;;;2.58;1.30;;;13.40;99.90;;;;;;5113532;28;20460;-78
2023/01/01 13:09:34;;;;;;;3.78;1.42;;;13.50;99.90;;;;;;5113482;28;20040;-78
2023/01/01 13:12:13;;;;;;;7.03;2.10;;;13.40;99.90;;;;;;5113912;28;20020;-79